Posen, Illinois
Current Conditions -  °F | °C
As of 6:15 PM on Monday 22 Dec 2014 (Local Time) from KIGQ Reporting Station
Moderate Rain Moderate Rain  
Wind Chill: 34°   Ceiling: 600
Heat Index: 40°   Visibility: 4mi
Dew Point: 39°   Wind: 10mph
Humidity: 95%   Direction: 130°SE
Pressure: 29.68"   Gusts: NA
Location:  41.63°N, 87.68°W
Report Text: KIGQ 230015Z AUTO 13009KT 4SM RA OVC006 05/04 A2968 RMK AO2 P0001 T00450037
Loading
Personal Weather Stations






























Interactive Weather Map New forecast layout! Learn more

10-Day Weather Forecast

Advertisements
Track Severe Weather on mobile